Time;durP1;ratioP1;P1;durP2;ratioP2;P2;SDS_P1;SDS_P2;PMS_P1;PMS_P2;Temp;Humidity;BMP_temperature;BMP_pressure;BME280_temperature;BME280_humidity;BME280_pressure;Samples;Min_cycle;Max_cycle;Signal;HPM_P1;HPM_P2
2021/03/29 00:02:18;;;;;;;13.08;4.10;;;13.40;99.90;;;;;;1894653;75;21075;-77
2021/03/29 00:04:46;;;;;;;15.13;4.40;;;13.40;99.90;;;;;;1891699;74;21144;-77
2021/03/29 00:07:14;;;;;;;16.77;5.25;;;13.40;99.90;;;;;;1891949;75;21076;-78
2021/03/29 00:09:42;;;;;;;13.95;4.45;;;13.40;99.90;;;;;;1890219;75;21045;-78
2021/03/29 00:12:11;;;;;;;18.70;4.50;;;13.40;99.90;;;;;;1895659;74;21171;-78
2021/03/29 00:14:41;;;;;;;10.58;4.05;;;13.40;99.90;;;;;;1895624;75;21087;-78
2021/03/29 00:17:08;;;;;;;13.68;4.05;;;13.40;99.90;;;;;;1898574;75;21147;-77
2021/03/29 00:19:39;;;;;;;17.65;5.00;;;13.40;99.90;;;;;;1879744;74;21234;-77
2021/03/29 00:22:07;;;;;;;14.00;4.55;;;13.40;99.90;;;;;;1894888;75;21470;-77
2021/03/29 00:24:36;;;;;;;10.80;4.42;;;13.40;99.90;;;;;;1896915;75;21088;-77
2021/03/29 00:27:04;;;;;;;19.57;4.85;;;13.40;99.90;;;;;;1892301;75;21155;-77
2021/03/29 00:29:32;;;;;;;19.92;4.95;;;13.40;99.90;;;;;;1896351;74;21085;-77
2021/03/29 00:32:01;;;;;;;16.05;5.30;;;13.40;99.90;;;;;;1892040;75;22403;-76
2021/03/29 00:34:29;;;;;;;18.35;4.12;;;13.40;99.90;;;;;;1892554;74;21121;-77
2021/03/29 00:36:58;;;;;;;16.00;4.58;;;13.40;99.90;;;;;;1895904;75;21174;-77
2021/03/29 00:39:27;;;;;;;16.95;5.15;;;13.40;99.90;;;;;;1897141;75;21050;-77
2021/03/29 00:41:55;;;;;;;16.12;4.78;;;13.40;99.90;;;;;;1890787;75;21107;-78
2021/03/29 00:44:23;;;;;;;18.27;5.25;;;13.50;99.90;;;;;;1896458;75;21574;-78
2021/03/29 00:46:52;;;;;;;17.25;4.62;;;13.50;99.90;;;;;;1896670;75;21128;-77
2021/03/29 00:49:20;;;;;;;15.23;4.70;;;13.60;99.90;;;;;;1891327;75;21105;-77
2021/03/29 00:51:48;;;;;;;17.02;4.53;;;13.50;99.90;;;;;;1894993;75;21363;-78
2021/03/29 00:54:16;;;;;;;11.48;4.65;;;13.50;99.90;;;;;;1896366;75;21335;-77
2021/03/29 00:56:45;;;;;;;13.45;4.00;;;13.50;99.90;;;;;;1898369;74;21143;-77
2021/03/29 00:59:12;;;;;;;13.88;4.60;;;13.50;99.90;;;;;;1896451;74;21248;-77
2021/03/29 01:01:43;;;;;;;15.43;4.17;;;13.50;99.90;;;;;;1895519;75;21111;-78
2021/03/29 01:04:11;;;;;;;20.57;4.70;;;13.50;99.90;;;;;;1895136;75;21096;-77
2021/03/29 01:06:44;;;;;;;14.70;5.00;;;13.40;99.90;;;;;;1888776;75;21097;-77
2021/03/29 01:09:18;;;;;;;17.40;4.75;;;13.40;99.90;;;;;;1894386;74;21096;-77
2021/03/29 01:11:54;;;;;;;18.45;5.35;;;13.40;99.90;;;;;;1889396;75;21049;-76
2021/03/29 01:14:43;;;;;;;15.05;4.78;;;13.30;99.90;;;;;;1893341;75;21033;-78
2021/03/29 01:17:25;;;;;;;15.50;4.55;;;13.30;99.90;;;;;;1892169;75;21590;-79
2021/03/29 01:19:53;;;;;;;;;;;13.20;99.90;;;;;;1898634;75;21130;-78
2021/03/29 01:22:24;;;;;;;21.35;5.70;;;13.20;99.90;;;;;;1890671;75;20430;-76
2021/03/29 01:24:57;;;;;;;14.43;4.33;;;13.20;99.90;;;;;;1896723;75;21074;-76
2021/03/29 01:27:30;;;;;;;15.55;5.08;;;13.20;99.90;;;;;;1891596;75;21132;-79
2021/03/29 01:29:59;;;;;;;17.17;5.50;;;13.30;99.90;;;;;;1892894;74;21127;-77
2021/03/29 01:32:29;;;;;;;16.10;4.83;;;13.30;99.90;;;;;;1894340;75;21105;-79
2021/03/29 01:34:58;;;;;;;13.55;4.67;;;13.30;99.90;;;;;;1896543;75;21077;-79
2021/03/29 01:37:27;;;;;;;11.70;4.35;;;13.30;99.90;;;;;;1901750;75;21491;-76
2021/03/29 01:39:55;;;;;;;14.65;4.53;;;13.30;99.90;;;;;;1894150;74;21061;-77
2021/03/29 01:42:24;;;;;;;15.45;4.97;;;13.30;99.90;;;;;;1893018;75;21244;-79
2021/03/29 01:44:53;;;;;;;17.35;5.00;;;13.30;99.90;;;;;;1894701;74;21517;-77
2021/03/29 01:47:21;;;;;;;13.55;4.90;;;13.30;99.90;;;;;;1887278;75;21159;-77
2021/03/29 01:49:49;;;;;;;12.68;4.60;;;13.30;99.90;;;;;;1899161;75;21055;-78
2021/03/29 01:52:17;;;;;;;13.18;4.30;;;13.30;99.90;;;;;;1892784;75;21061;-78
2021/03/29 01:54:46;;;;;;;14.47;4.70;;;13.20;99.90;;;;;;1894860;75;21631;-78
2021/03/29 01:57:14;;;;;;;22.65;4.58;;;13.30;99.90;;;;;;1892632;75;21084;-78
2021/03/29 01:59:42;;;;;;;15.18;5.05;;;13.20;99.90;;;;;;1897760;74;21085;-78
2021/03/29 02:02:12;;;;;;;14.18;5.00;;;13.20;99.90;;;;;;1894054;75;21144;-77
2021/03/29 02:04:40;;;;;;;12.70;5.17;;;13.20;99.90;;;;;;1895525;74;21125;-77
2021/03/29 02:07:08;;;;;;;15.20;4.83;;;13.20;99.90;;;;;;1892324;75;21213;-78
2021/03/29 02:09:36;;;;;;;14.40;5.12;;;13.20;99.90;;;;;;1894978;75;21205;-77
2021/03/29 02:12:07;;;;;;;11.33;4.33;;;13.10;99.90;;;;;;1886741;75;21273;-77
2021/03/29 02:14:36;;;;;;;17.07;4.47;;;13.20;99.90;;;;;;1890513;75;21018;-77
2021/03/29 02:17:06;;;;;;;14.55;4.22;;;13.10;99.90;;;;;;1900446;75;21377;-77
2021/03/29 02:19:36;;;;;;;12.70;4.12;;;13.00;99.90;;;;;;1895204;75;21198;-76
2021/03/29 02:22:04;;;;;;;14.80;4.47;;;13.10;99.90;;;;;;1900507;75;21041;-78
2021/03/29 02:24:32;;;;;;;13.45;4.60;;;13.10;99.90;;;;;;1890449;75;21624;-77
2021/03/29 02:27:01;;;;;;;16.35;4.62;;;13.10;99.90;;;;;;1897721;75;21022;-77
2021/03/29 02:29:28;;;;;;;14.23;4.78;;;13.00;99.90;;;;;;1893795;75;21086;-77
2021/03/29 02:31:59;;;;;;;15.23;4.53;;;13.00;99.90;;;;;;1895823;75;21021;-77
2021/03/29 02:34:28;;;;;;;15.70;4.37;;;13.10;99.90;;;;;;1894103;75;21162;-77
2021/03/29 02:36:56;;;;;;;18.70;5.30;;;13.00;99.90;;;;;;1894579;75;21166;-77
2021/03/29 02:39:24;;;;;;;16.82;5.00;;;13.00;99.90;;;;;;1892518;75;21141;-77
2021/03/29 02:41:52;;;;;;;19.15;4.90;;;13.00;99.90;;;;;;1897357;75;21056;-77
2021/03/29 02:44:20;;;;;;;13.45;4.35;;;13.00;99.90;;;;;;1889925;75;21559;-77
2021/03/29 02:46:49;;;;;;;12.03;4.53;;;13.00;99.90;;;;;;1896441;75;21168;-78
2021/03/29 02:49:18;;;;;;;14.28;4.58;;;13.10;99.90;;;;;;1896241;75;21104;-78
2021/03/29 02:51:46;;;;;;;16.37;5.35;;;13.10;99.90;;;;;;1886163;75;21471;-77
2021/03/29 02:54:15;;;;;;;14.98;4.70;;;13.00;99.90;;;;;;1894663;75;21073;-78
2021/03/29 02:56:47;;;;;;;14.70;4.35;;;13.00;99.90;;;;;;1891904;75;21593;-77
2021/03/29 02:59:18;;;;;;;12.23;4.72;;;13.00;99.90;;;;;;1897414;74;21534;-80
2021/03/29 03:01:47;;;;;;;15.63;4.50;;;13.00;99.90;;;;;;1889886;74;21112;-77
2021/03/29 03:04:16;;;;;;;20.15;5.45;;;13.00;99.90;;;;;;1898646;75;21674;-77
2021/03/29 03:06:46;;;;;;;13.88;4.67;;;13.00;99.90;;;;;;1892044;75;21262;-78
2021/03/29 03:09:14;;;;;;;17.55;4.60;;;13.00;99.90;;;;;;1889475;75;21069;-78
2021/03/29 03:11:46;;;;;;;13.10;4.80;;;13.00;99.90;;;;;;1895610;75;21233;-77
2021/03/29 03:14:14;;;;;;;13.55;4.78;;;13.00;99.90;;;;;;1893763;75;21155;-76
2021/03/29 03:16:43;;;;;;;15.60;4.85;;;13.00;99.90;;;;;;1896205;74;21128;-76
2021/03/29 03:19:11;;;;;;;13.30;4.28;;;13.00;99.90;;;;;;1891129;75;21088;-77
2021/03/29 03:21:38;;;;;;;14.33;4.55;;;13.00;99.90;;;;;;1896971;75;21144;-77
2021/03/29 03:24:07;;;;;;;11.65;4.30;;;13.00;99.90;;;;;;1893157;74;21100;-77
2021/03/29 03:26:34;;;;;;;11.80;4.12;;;13.00;99.90;;;;;;1894953;75;21126;-77
2021/03/29 03:29:03;;;;;;;14.58;4.28;;;13.00;99.90;;;;;;1898124;75;21105;-76
2021/03/29 03:31:32;;;;;;;16.30;4.80;;;13.00;99.90;;;;;;1891706;75;21097;-76
2021/03/29 03:33:59;;;;;;;14.28;4.35;;;12.90;99.90;;;;;;1890558;75;22162;-76
2021/03/29 03:36:29;;;;;;;12.93;4.28;;;12.90;99.90;;;;;;1894950;75;21199;-76
2021/03/29 03:38:58;;;;;;;22.80;4.50;;;12.90;99.90;;;;;;1900185;75;21085;-77
2021/03/29 03:41:28;;;;;;;17.25;4.80;;;12.90;99.90;;;;;;1893580;75;21076;-77
2021/03/29 03:43:58;;;;;;;14.58;4.75;;;12.90;99.90;;;;;;1888961;75;21527;-76
2021/03/29 03:46:37;;;;;;;13.43;4.80;;;12.90;99.90;;;;;;1899412;75;21420;-76
2021/03/29 03:49:16;;;;;;;12.40;4.15;;;13.00;99.90;;;;;;1888039;75;21092;-76
2021/03/29 03:51:48;;;;;;;14.50;4.45;;;12.90;99.90;;;;;;1892770;74;21037;-78
2021/03/29 03:54:16;;;;;;;;;;;12.90;99.90;;;;;;1898912;75;21029;-79
2021/03/29 03:56:45;;;;;;;13.03;4.22;;;13.00;99.90;;;;;;1898329;75;20223;-79
2021/03/29 03:59:14;;;;;;;11.65;3.80;;;13.00;99.90;;;;;;1896082;74;21191;-76
2021/03/29 04:02:07;;;;;;;11.43;3.52;;;13.10;99.90;;;;;;1892732;74;21236;-76
2021/03/29 04:04:36;;;;;;;14.03;3.70;;;13.10;99.90;;;;;;1895208;75;21132;-77
2021/03/29 04:07:04;;;;;;;11.75;3.87;;;13.00;99.90;;;;;;1898601;75;21108;-77
2021/03/29 04:09:41;;;;;;;15.45;4.35;;;13.10;99.90;;;;;;1894722;75;21093;-77
2021/03/29 04:12:08;;;;;;;13.93;3.77;;;13.00;99.90;;;;;;1892590;75;21139;-77
2021/03/29 04:14:33;;;;;;;13.18;3.83;;;13.00;99.90;;;;;;1899043;75;21344;-77
2021/03/29 04:17:01;;;;;;;11.15;3.77;;;13.10;99.90;;;;;;1893189;75;21095;-77
2021/03/29 04:19:28;;;;;;;19.17;4.25;;;13.10;99.90;;;;;;1897152;74;21164;-77
2021/03/29 04:21:56;;;;;;;16.12;4.95;;;13.20;99.90;;;;;;1893902;75;21104;-78
2021/03/29 04:24:24;;;;;;;19.25;4.42;;;13.30;99.90;;;;;;1896044;75;21088;-76
2021/03/29 04:26:51;;;;;;;12.30;3.45;;;13.20;99.90;;;;;;1895818;75;21271;-76
2021/03/29 04:29:19;;;;;;;9.85;4.00;;;13.20;99.90;;;;;;1897134;74;21550;-77
2021/03/29 04:31:47;;;;;;;16.37;4.15;;;13.20;99.90;;;;;;1893317;75;21669;-77
2021/03/29 04:34:14;;;;;;;12.78;4.45;;;13.20;99.90;;;;;;1895379;75;21101;-76
2021/03/29 04:36:42;;;;;;;15.75;4.17;;;13.30;99.90;;;;;;1896049;75;21750;-76
2021/03/29 04:39:09;;;;;;;15.35;4.12;;;13.30;99.90;;;;;;1900745;74;21037;-77
2021/03/29 04:41:37;;;;;;;13.72;4.28;;;13.30;99.90;;;;;;1894322;75;21166;-77
2021/03/29 04:44:05;;;;;;;13.08;4.17;;;13.40;99.90;;;;;;1895011;75;21226;-77
2021/03/29 04:46:32;;;;;;;17.00;3.92;;;13.40;99.90;;;;;;1896236;75;21112;-77
2021/03/29 04:49:00;;;;;;;11.15;3.95;;;13.40;99.90;;;;;;1893972;75;21073;-76
2021/03/29 04:51:27;;;;;;;13.90;3.98;;;13.40;99.90;;;;;;1886154;75;21588;-76
2021/03/29 04:53:55;;;;;;;16.00;3.85;;;13.40;99.90;;;;;;1895245;75;21096;-76
2021/03/29 04:56:23;;;;;;;10.28;3.70;;;13.40;99.90;;;;;;1892884;75;21115;-77
2021/03/29 04:58:51;;;;;;;17.70;4.62;;;13.50;99.90;;;;;;1897738;75;21120;-77
2021/03/29 05:01:18;;;;;;;14.35;3.90;;;13.40;99.90;;;;;;1894907;74;21101;-76
2021/03/29 05:03:46;;;;;;;11.43;3.90;;;13.30;99.90;;;;;;1894391;75;21077;-76
2021/03/29 05:06:13;;;;;;;16.37;4.17;;;13.40;99.90;;;;;;1893364;75;21605;-77
2021/03/29 05:08:40;;;;;;;16.17;3.77;;;13.40;99.90;;;;;;1892829;75;21073;-77
2021/03/29 05:11:10;;;;;;;14.85;3.90;;;13.40;99.90;;;;;;1894423;75;21117;-76
2021/03/29 05:13:37;;;;;;;15.75;4.30;;;13.50;99.90;;;;;;1898818;74;21104;-77
2021/03/29 05:16:05;;;;;;;16.37;3.77;;;13.40;99.90;;;;;;1892253;75;21243;-76
2021/03/29 05:18:33;;;;;;;13.35;3.80;;;13.40;99.90;;;;;;1892679;75;21514;-76
2021/03/29 05:21:00;;;;;;;17.20;4.15;;;13.50;99.90;;;;;;1895725;75;21120;-76
2021/03/29 05:23:28;;;;;;;15.58;3.70;;;13.50;99.90;;;;;;1899251;75;21190;-74
2021/03/29 05:25:57;;;;;;;18.82;4.37;;;13.40;99.90;;;;;;1900663;75;21094;-75
2021/03/29 05:28:24;;;;;;;14.98;4.05;;;13.50;99.90;;;;;;1898483;75;21567;-75
2021/03/29 05:30:52;;;;;;;12.07;3.60;;;13.50;99.90;;;;;;1897769;74;21321;-75
2021/03/29 05:33:20;;;;;;;9.38;3.47;;;13.50;99.90;;;;;;1895468;75;21092;-75
2021/03/29 05:35:48;;;;;;;17.23;4.20;;;13.50;99.90;;;;;;1897465;75;21172;-76
2021/03/29 05:38:15;;;;;;;11.48;3.65;;;13.50;99.90;;;;;;1891375;75;21675;-77
2021/03/29 05:40:43;;;;;;;13.43;3.95;;;13.50;99.90;;;;;;1896201;74;21159;-76
2021/03/29 05:43:10;;;;;;;11.00;3.83;;;13.50;99.90;;;;;;1890282;75;21154;-76
2021/03/29 05:45:40;;;;;;;13.93;3.98;;;13.60;99.90;;;;;;1894478;75;21213;-76
2021/03/29 05:48:09;;;;;;;11.28;3.42;;;13.60;99.90;;;;;;1895181;74;21577;-76
2021/03/29 05:50:37;;;;;;;10.05;3.83;;;13.60;99.90;;;;;;1893475;75;21091;-76
2021/03/29 05:53:04;;;;;;;12.53;3.60;;;13.70;99.90;;;;;;1897555;75;21220;-76
2021/03/29 05:55:36;;;;;;;18.23;4.30;;;13.80;99.90;;;;;;1893486;75;21116;-76
2021/03/29 06:00:45;;;;;;;13.38;3.87;;;13.80;99.90;;;;;;1892625;74;21129;-75
2021/03/29 06:03:27;;;;;;;12.37;3.62;;;13.80;99.90;;;;;;1893038;75;21582;-76
2021/03/29 06:06:00;;;;;;;11.57;3.80;;;13.80;99.90;;;;;;1889810;75;21085;-76
2021/03/29 06:08:29;;;;;;;13.18;3.80;;;13.70;99.90;;;;;;1891747;75;21205;-76
2021/03/29 06:10:59;;;;;;;17.30;4.20;;;13.80;99.90;;;;;;1889680;75;21656;-76
2021/03/29 06:13:29;;;;;;;17.67;4.08;;;13.80;99.90;;;;;;1891786;75;21642;-76
2021/03/29 06:16:10;;;;;;;17.82;3.85;;;13.80;99.90;;;;;;1894143;75;21554;-75
2021/03/29 06:18:40;;;;;;;14.15;3.75;;;13.90;99.90;;;;;;1895443;75;21080;-76
2021/03/29 06:21:10;;;;;;;10.90;3.77;;;13.90;99.90;;;;;;1896714;74;22102;-76
2021/03/29 06:23:44;;;;;;;12.37;4.03;;;13.90;99.90;;;;;;1888774;75;21123;-76
2021/03/29 06:26:22;;;;;;;12.20;3.60;;;13.90;99.90;;;;;;1898269;74;21531;-76
2021/03/29 06:28:51;;;;;;;15.13;4.37;;;13.80;99.90;;;;;;1898423;73;21081;-76
2021/03/29 06:31:23;;;;;;;17.48;4.37;;;13.90;99.90;;;;;;1903135;74;21493;-76
2021/03/29 06:33:52;;;;;;;16.60;4.55;;;13.90;99.90;;;;;;1898095;74;21099;-76
2021/03/29 06:36:34;;;;;;;13.38;4.17;;;13.90;99.90;;;;;;1900949;74;21115;-77
2021/03/29 06:39:17;;;;;;;15.32;4.40;;;13.90;99.90;;;;;;1898325;75;21636;-77
2021/03/29 06:41:56;;;;;;;;;;;13.90;99.90;;;;;;1901519;75;21126;-77
2021/03/29 06:44:26;;;;;;;12.03;3.62;;;13.90;99.90;;;;;;1898794;75;20285;-76
2021/03/29 06:47:14;;;;;;;11.97;3.87;;;14.00;99.90;;;;;;1897831;75;21256;-77
2021/03/29 06:49:45;;;;;;;13.25;4.17;;;14.00;99.90;;;;;;1894556;75;21114;-78
2021/03/29 06:52:29;;;;;;;23.57;4.17;;;13.90;99.90;;;;;;1896052;75;21517;-76
2021/03/29 06:58:05;;;;;;;15.80;4.28;;;14.00;99.90;;;;;;1863612;76;21122;-76
2021/03/29 07:00:36;;;;;;;11.20;3.47;;;14.00;99.90;;;;;;1854829;76;21609;-76
2021/03/29 07:03:09;;;;;;;12.55;3.87;;;14.10;99.90;;;;;;1854120;76;21213;-78
2021/03/29 07:05:40;;;;;;;14.28;4.58;;;14.10;99.90;;;;;;1850435;76;21112;-76
2021/03/29 07:08:08;;;;;;;9.25;3.65;;;14.00;99.90;;;;;;1837401;76;21104;-77
2021/03/29 07:10:35;;;;;;;10.48;3.90;;;14.10;99.90;;;;;;1843696;75;21190;-76
2021/03/29 07:13:03;;;;;;;13.30;4.08;;;14.10;99.90;;;;;;1836829;76;21127;-76
2021/03/29 07:15:32;;;;;;;17.05;4.33;;;14.30;99.90;;;;;;1835615;76;21254;-78
2021/03/29 07:18:01;;;;;;;14.30;4.28;;;14.30;99.90;;;;;;1838606;76;21072;-76
2021/03/29 07:20:29;;;;;;;16.37;4.30;;;14.20;99.90;;;;;;1839335;75;21068;-77
2021/03/29 07:22:57;;;;;;;12.58;4.10;;;14.20;99.90;;;;;;1852092;76;21121;-76
2021/03/29 07:25:35;;;;;;;17.50;4.15;;;14.20;99.90;;;;;;1852190;76;21572;-77
2021/03/29 07:28:04;;;;;;;17.42;4.20;;;14.10;99.90;;;;;;1849378;76;21089;-76
2021/03/29 07:30:46;;;;;;;14.30;3.85;;;14.10;99.90;;;;;;1859380;75;21143;-77
2021/03/29 07:33:19;;;;;;;16.93;4.70;;;14.30;99.90;;;;;;1852326;76;21135;-77
2021/03/29 07:35:50;;;;;;;;;;;14.30;99.90;;;;;;1838411;74;21291;-76
2021/03/29 07:38:19;;;;;;;14.85;4.20;;;14.40;99.90;;;;;;1805948;79;20258;-77
2021/03/29 07:40:50;;;;;;;15.98;4.25;;;14.30;99.90;;;;;;1895131;74;21049;-77
2021/03/29 07:43:22;;;;;;;18.45;4.70;;;14.30;99.90;;;;;;1898962;74;21104;-77
2021/03/29 07:45:53;;;;;;;13.65;4.17;;;14.40;99.90;;;;;;1901017;74;21097;-76
2021/03/29 07:48:34;;;;;;;16.87;4.37;;;14.50;99.90;;;;;;1839557;76;21993;-76
2021/03/29 07:51:04;;;;;;;14.07;4.90;;;14.50;99.90;;;;;;1837951;76;21108;-76
2021/03/29 07:53:50;;;;;;;10.55;3.75;;;14.60;99.90;;;;;;1803287;78;21807;-76
2021/03/29 07:56:32;;;;;;;13.32;4.50;;;14.60;99.90;;;;;;1837913;76;21072;-76
2021/03/29 07:59:00;;;;;;;14.70;4.28;;;14.50;99.90;;;;;;1836616;76;21056;-77
2021/03/29 08:01:27;;;;;;;18.90;4.28;;;14.60;99.90;;;;;;1840281;76;21285;-77
2021/03/29 08:04:00;;;;;;;15.20;4.10;;;14.80;99.90;;;;;;1839040;76;21584;-76
2021/03/29 08:06:39;;;;;;;16.50;4.05;;;14.80;99.90;;;;;;1839738;76;21141;-77
2021/03/29 08:09:08;;;;;;;17.77;5.03;;;14.80;99.90;;;;;;1839989;76;21423;-77
2021/03/29 08:11:55;;;;;;;13.45;4.20;;;14.70;99.90;;;;;;1839820;76;21107;-77
2021/03/29 08:14:32;;;;;;;15.63;4.45;;;14.70;99.90;;;;;;1842230;76;21106;-75
2021/03/29 08:17:01;;;;;;;13.62;4.12;;;14.70;99.90;;;;;;1843658;76;21040;-75
2021/03/29 08:19:29;;;;;;;18.52;4.83;;;14.80;99.90;;;;;;1833875;76;21140;-75
2021/03/29 08:22:03;;;;;;;14.07;4.75;;;14.80;99.90;;;;;;1838825;76;21067;-75
2021/03/29 08:24:35;;;;;;;14.87;4.20;;;14.80;99.90;;;;;;1809813;77;21125;-76
2021/03/29 08:27:21;;;;;;;11.08;4.30;;;14.80;99.90;;;;;;1838693;76;21185;-76
2021/03/29 08:29:55;;;;;;;18.42;4.40;;;14.90;99.90;;;;;;1804753;77;21105;-75
2021/03/29 08:32:31;;;;;;;13.95;4.55;;;14.90;99.90;;;;;;1833560;76;21167;-75
2021/03/29 08:35:07;;;;;;;11.10;4.40;;;14.90;99.90;;;;;;1838796;76;21132;-75
2021/03/29 08:37:43;;;;;;;12.82;4.40;;;14.90;99.90;;;;;;1837114;76;21119;-75
2021/03/29 08:40:20;;;;;;;15.95;4.05;;;15.00;99.90;;;;;;1883790;74;21562;-75
2021/03/29 08:42:50;;;;;;;18.23;4.20;;;15.00;99.90;;;;;;1884713;74;21144;-75
2021/03/29 08:45:20;;;;;;;12.10;4.35;;;15.00;99.90;;;;;;1884633;75;21630;-76
2021/03/29 08:47:50;;;;;;;11.43;3.83;;;15.10;99.90;;;;;;1883394;75;21162;-76
2021/03/29 08:50:20;;;;;;;14.85;4.17;;;15.20;99.90;;;;;;1885442;75;22266;-79
2021/03/29 08:52:54;;;;;;;13.75;4.30;;;15.30;99.90;;;;;;1885430;76;21574;-76
2021/03/29 08:55:27;;;;;;;13.03;4.30;;;15.30;99.90;;;;;;1888008;74;21081;-74
2021/03/29 08:57:56;;;;;;;15.93;5.00;;;15.30;99.90;;;;;;1839329;76;21108;-77
2021/03/29 09:00:32;;;;;;;11.15;4.00;;;15.40;99.90;;;;;;1838596;76;21285;-76
2021/03/29 09:03:00;;;;;;;16.52;4.47;;;15.40;99.90;;;;;;1837516;76;21170;-76
2021/03/29 09:05:28;;;;;;;14.00;4.22;;;15.50;99.90;;;;;;1844746;75;21167;-75
2021/03/29 09:07:56;;;;;;;15.35;4.47;;;15.60;99.90;;;;;;1845254;75;21099;-75
2021/03/29 09:10:38;;;;;;;11.18;4.33;;;15.80;99.90;;;;;;1839325;76;21103;-78
2021/03/29 09:13:05;;;;;;;10.68;3.87;;;15.80;99.90;;;;;;1838498;76;21510;-77
2021/03/29 09:15:38;;;;;;;10.98;4.30;;;15.90;99.90;;;;;;1848061;75;21243;-77
2021/03/29 09:18:08;;;;;;;14.60;4.47;;;15.80;99.90;;;;;;1850492;75;21168;-76
2021/03/29 09:20:41;;;;;;;16.45;4.03;;;15.90;99.90;;;;;;1841930;76;21226;-76
2021/03/29 09:23:13;;;;;;;10.25;3.70;;;16.00;99.90;;;;;;1840198;76;21134;-75
2021/03/29 09:25:44;;;;;;;14.25;4.08;;;16.10;99.70;;;;;;1842293;76;21123;-75
2021/03/29 09:28:23;;;;;;;12.78;3.55;;;16.10;99.90;;;;;;1810070;77;21119;-75
2021/03/29 09:30:51;;;;;;;12.60;4.25;;;16.30;99.80;;;;;;1844844;76;21178;-75
2021/03/29 09:33:21;;;;;;;12.55;3.80;;;16.30;99.70;;;;;;1837729;76;21627;-75
2021/03/29 09:35:50;;;;;;;13.70;4.15;;;16.40;99.90;;;;;;1837017;76;21092;-76
2021/03/29 09:38:35;;;;;;;10.80;3.90;;;16.40;99.70;;;;;;1837979;76;21103;-75
2021/03/29 09:41:25;;;;;;;10.80;4.08;;;16.60;99.80;;;;;;1841607;76;21562;-77
2021/03/29 09:43:55;;;;;;;10.93;3.72;;;16.60;99.90;;;;;;1841379;76;21109;-76
2021/03/29 09:46:30;;;;;;;16.17;4.30;;;16.70;99.90;;;;;;1838371;76;21662;-76
2021/03/29 09:49:06;;;;;;;10.32;3.75;;;16.80;99.50;;;;;;1839358;76;21103;-75
2021/03/29 09:51:34;;;;;;;11.38;3.95;;;17.00;99.60;;;;;;1809009;77;21124;-75
2021/03/29 09:54:03;;;;;;;15.38;4.15;;;17.00;99.40;;;;;;1839378;76;21093;-74
2021/03/29 09:56:33;;;;;;;13.43;3.98;;;17.10;99.10;;;;;;1839733;76;21561;-73
2021/03/29 09:59:00;;;;;;;13.00;4.10;;;17.20;99.10;;;;;;1840237;76;21181;-75
2021/03/29 10:01:28;;;;;;;12.50;3.75;;;17.10;99.10;;;;;;1840339;76;21040;-74
2021/03/29 10:03:59;;;;;;;11.55;3.90;;;17.00;99.20;;;;;;1842370;76;21082;-73
2021/03/29 10:06:29;;;;;;;13.15;4.30;;;17.10;99.20;;;;;;1813328;77;21663;-73
2021/03/29 10:09:05;;;;;;;12.18;3.85;;;17.20;99.70;;;;;;1841940;76;21227;-74
2021/03/29 10:11:47;;;;;;;12.28;3.77;;;17.40;99.00;;;;;;1842201;76;21483;-73
2021/03/29 10:14:18;;;;;;;11.00;4.07;;;17.50;99.10;;;;;;1844387;76;21121;-74
2021/03/29 10:16:47;;;;;;;11.63;4.33;;;17.60;99.10;;;;;;1843250;76;21570;-74
2021/03/29 10:19:19;;;;;;;9.38;4.00;;;17.70;98.90;;;;;;1842804;76;21045;-72
2021/03/29 10:22:04;;;;;;;6.90;3.20;;;17.80;98.60;;;;;;1807311;78;21115;-72
2021/03/29 10:24:37;;;;;;;10.93;4.12;;;17.80;98.40;;;;;;1841395;76;21857;-75
2021/03/29 10:27:08;;;;;;;11.45;3.85;;;17.80;98.80;;;;;;1835821;76;21169;-75
2021/03/29 10:29:41;;;;;;;11.50;4.22;;;17.80;99.00;;;;;;1836987;76;21187;-75
2021/03/29 10:32:14;;;;;;;8.48;3.62;;;18.00;98.80;;;;;;1841328;76;21665;-75
2021/03/29 10:34:43;;;;;;;15.38;4.08;;;18.10;98.80;;;;;;1836614;76;21056;-76
2021/03/29 10:37:25;;;;;;;11.03;3.80;;;18.20;98.50;;;;;;1838205;76;21120;-76
2021/03/29 10:39:52;;;;;;;;;;;18.40;98.20;;;;;;1843125;76;21092;-76
2021/03/29 10:42:24;;;;;;;11.30;4.42;;;18.40;98.40;;;;;;1809336;78;20207;-75
2021/03/29 10:44:53;;;;;;;7.20;3.42;;;18.60;97.90;;;;;;1844332;76;21799;-75
2021/03/29 10:47:21;;;;;;;10.20;3.58;;;18.60;98.10;;;;;;1839041;76;21076;-75
2021/03/29 10:49:48;;;;;;;13.38;4.20;;;18.70;98.10;;;;;;1839644;76;21581;-75
2021/03/29 10:52:16;;;;;;;9.93;3.58;;;18.80;98.90;;;;;;1830050;76;21571;-75
2021/03/29 10:54:44;;;;;;;7.72;3.20;;;18.90;98.00;;;;;;1844031;76;21076;-75
2021/03/29 10:57:12;;;;;;;7.45;3.70;;;18.90;97.50;;;;;;1889436;74;21057;-75
2021/03/29 10:59:39;;;;;;;12.63;3.98;;;19.00;98.50;;;;;;1887858;74;21610;-77
2021/03/29 11:02:07;;;;;;;13.13;4.08;;;18.90;97.30;;;;;;1842869;76;21179;-74
2021/03/29 11:04:34;;;;;;;11.70;3.90;;;19.00;97.50;;;;;;1840054;76;21169;-73
2021/03/29 11:07:02;;;;;;;10.85;4.17;;;19.10;97.50;;;;;;1838997;76;21244;-75
2021/03/29 11:09:30;;;;;;;9.33;3.40;;;19.10;97.20;;;;;;1802749;78;21137;-75
2021/03/29 11:11:57;;;;;;;11.05;4.10;;;19.20;97.30;;;;;;1836635;76;21658;-74
2021/03/29 11:14:25;;;;;;;16.15;4.17;;;19.20;97.10;;;;;;1838683;76;21122;-74
2021/03/29 11:16:54;;;;;;;12.30;3.95;;;19.30;97.50;;;;;;1840659;76;21224;-73
2021/03/29 11:19:22;;;;;;;10.00;3.75;;;19.50;97.00;;;;;;1810477;77;21725;-74
2021/03/29 11:21:51;;;;;;;12.50;4.33;;;19.70;96.50;;;;;;1844276;75;21165;-74
2021/03/29 11:24:20;;;;;;;9.78;3.90;;;19.70;96.10;;;;;;1803888;78;21282;-74
2021/03/29 11:26:48;;;;;;;11.18;3.80;;;19.70;96.60;;;;;;1838775;76;21205;-74
2021/03/29 11:29:16;;;;;;;10.45;3.62;;;19.80;96.60;;;;;;1841603;76;21099;-74
2021/03/29 11:31:44;;;;;;;11.80;3.30;;;19.90;96.70;;;;;;1845658;76;21195;-75
2021/03/29 11:34:13;;;;;;;10.93;3.95;;;20.10;96.60;;;;;;1897365;74;21112;-76
2021/03/29 11:36:43;;;;;;;9.83;3.52;;;20.20;96.60;;;;;;1832182;76;21096;-75
2021/03/29 11:39:13;;;;;;;9.88;3.85;;;20.30;96.10;;;;;;1839743;78;21131;-76
2021/03/29 11:41:41;;;;;;;9.13;3.15;;;20.40;96.40;;;;;;1835954;76;21100;-76
2021/03/29 11:44:09;;;;;;;12.00;4.10;;;20.60;96.20;;;;;;1836483;77;21612;-75
2021/03/29 11:46:36;;;;;;;9.95;3.80;;;20.70;95.00;;;;;;1840729;76;21142;-75
2021/03/29 11:49:04;;;;;;;7.47;3.70;;;20.80;94.70;;;;;;1847511;76;21085;-76
2021/03/29 11:51:32;;;;;;;12.73;3.70;;;20.80;95.00;;;;;;1836554;76;21116;-75
2021/03/29 11:54:00;;;;;;;9.53;3.40;;;20.80;94.70;;;;;;1837325;76;21138;-75
2021/03/29 11:56:27;;;;;;;8.43;3.60;;;20.80;94.70;;;;;;1814458;77;21195;-75
2021/03/29 11:58:55;;;;;;;12.30;4.03;;;20.90;95.00;;;;;;1827653;77;21207;-76
2021/03/29 12:04:29;;;;;;;10.75;3.58;;;21.20;94.80;;;;;;1838694;76;21166;-75
2021/03/29 12:06:46;;;;;;;16.57;4.30;;;21.40;94.20;;;;;;1829362;76;21137;-74
2021/03/29 12:09:20;;;;;;;7.58;3.22;;;21.70;93.80;;;;;;1841494;76;21135;-76
2021/03/29 12:12:06;;;;;;;10.58;3.85;;;22.00;93.60;;;;;;1836952;76;21072;-72
2021/03/29 12:14:14;;;;;;;8.08;2.98;;;22.40;93.10;;;;;;1794840;78;21214;-71
2021/03/29 12:16:44;;;;;;;7.30;3.33;;;22.50;93.10;;;;;;1838040;76;21127;-71
2021/03/29 12:19:12;;;;;;;9.40;3.65;;;22.90;92.70;;;;;;1838800;76;21138;-74
2021/03/29 12:21:40;;;;;;;9.75;3.00;;;23.40;91.60;;;;;;1838913;76;21119;-72
2021/03/29 12:24:12;;;;;;;11.48;3.58;;;23.70;91.10;;;;;;1806705;78;21178;-71
2021/03/29 12:26:42;;;;;;;8.13;3.37;;;24.00;89.70;;;;;;1838696;76;21629;-71
2021/03/29 12:29:14;;;;;;;9.45;3.58;;;24.30;89.60;;;;;;1837710;78;21204;-71
2021/03/29 12:31:43;;;;;;;8.50;3.27;;;24.60;88.40;;;;;;1840253;76;21632;-74
2021/03/29 12:34:11;;;;;;;7.20;3.10;;;25.00;87.20;;;;;;1896479;75;21228;-74
2021/03/29 12:36:48;;;;;;;11.03;2.77;;;25.20;86.70;;;;;;1835988;76;21198;-71
2021/03/29 12:39:34;;;;;;;12.40;3.15;;;25.30;86.10;;;;;;1838043;76;21580;-71
2021/03/29 12:41:59;;;;;;;9.78;3.12;;;25.30;84.00;;;;;;1837741;76;21151;-71
2021/03/29 12:44:28;;;;;;;9.98;3.37;;;25.50;84.80;;;;;;1840018;76;21573;-71
2021/03/29 12:46:59;;;;;;;11.15;3.42;;;25.70;81.60;;;;;;1838582;76;21159;-71
2021/03/29 12:49:25;;;;;;;7.10;2.67;;;25.60;81.20;;;;;;1840756;76;21205;-71
2021/03/29 12:51:58;;;;;;;7.17;3.17;;;26.00;82.30;;;;;;1836583;76;21229;-73
2021/03/29 12:54:30;;;;;;;10.13;2.87;;;26.40;79.50;;;;;;1831715;76;21700;-71
2021/03/29 12:56:56;;;;;;;5.80;2.85;;;26.80;79.20;;;;;;1845287;76;21613;-72
2021/03/29 12:59:25;;;;;;;11.05;3.05;;;27.00;76.60;;;;;;1806741;77;21168;-72
2021/03/29 13:01:54;;;;;;;6.87;2.90;;;27.50;74.80;;;;;;1806511;78;21174;-74
2021/03/29 13:04:26;;;;;;;5.72;2.62;;;27.70;75.10;;;;;;1837690;78;22580;-73
2021/03/29 13:07:43;;;;;;;6.90;2.58;;;28.00;73.70;;;;;;1840612;76;21151;-73